createdAt,value
2019-03-28T11:40:09.439Z,3.57
2019-03-28T11:45:11.089Z,3.73
2019-03-28T11:50:12.398Z,3.70
2019-03-28T11:55:13.590Z,3.87
2019-03-28T12:00:17.223Z,3.40
2019-03-28T12:05:18.352Z,3.57
2019-03-28T12:10:19.543Z,3.50
2019-03-28T12:15:20.755Z,3.43
2019-03-28T12:20:21.858Z,3.50
2019-03-28T12:25:22.967Z,3.10
2019-03-28T12:30:24.161Z,4.03
2019-03-28T12:35:25.255Z,3.27
2019-03-28T12:40:26.389Z,6.80
2019-03-28T12:45:27.498Z,3.90
2019-03-28T12:50:28.610Z,3.57
2019-03-28T12:55:29.700Z,2.43
2019-03-28T13:00:33.349Z,3.43
2019-03-28T13:05:34.940Z,3.40
2019-03-28T13:10:36.251Z,3.17
2019-03-28T13:15:37.355Z,3.90
2019-03-28T13:20:38.460Z,3.27
2019-03-28T13:25:39.569Z,4.37
2019-03-28T13:30:40.672Z,3.53
2019-03-28T13:35:41.760Z,3.57
2019-03-28T13:40:42.888Z,3.67
2019-03-28T13:45:43.976Z,3.50
2019-03-28T13:50:45.952Z,3.30
2019-03-28T13:55:47.095Z,3.47
2019-03-28T14:00:48.224Z,3.57
2019-03-28T14:05:49.329Z,4.57
2019-03-28T14:10:50.417Z,3.27
2019-03-28T14:15:51.541Z,3.00
2019-03-28T14:20:52.646Z,3.03
2019-03-28T14:25:53.732Z,3.23
2019-03-28T14:30:54.821Z,2.80
2019-03-28T14:35:55.926Z,3.60
2019-03-28T14:40:58.388Z,3.50
2019-03-28T14:45:59.784Z,3.20
2019-03-28T14:51:00.957Z,3.60
2019-03-28T14:56:02.548Z,3.20
2019-03-28T15:01:03.690Z,2.90
2019-03-28T15:06:04.959Z,3.00
2019-03-28T15:11:06.167Z,2.70
2019-03-28T15:16:07.470Z,2.90
2019-03-28T15:21:08.561Z,3.07
2019-03-28T15:26:09.660Z,2.30
2019-03-28T15:31:10.870Z,2.13
2019-03-28T15:36:11.998Z,2.80
2019-03-28T15:41:13.217Z,2.57
2019-03-28T15:46:14.335Z,2.80
2019-03-28T15:51:15.405Z,2.30
2019-03-28T15:56:16.507Z,3.60
2019-03-28T16:01:17.627Z,3.30
2019-03-28T16:06:18.712Z,2.10
2019-03-28T16:11:19.832Z,2.20
2019-03-28T16:16:20.932Z,3.17
2019-03-28T16:21:22.044Z,2.60
2019-03-28T16:26:23.143Z,3.43
2019-03-28T16:31:24.242Z,3.20
2019-03-28T16:36:25.354Z,3.57
2019-03-28T16:41:26.584Z,3.30
2019-03-28T16:46:27.775Z,3.33
2019-03-28T16:51:28.876Z,3.20
2019-03-28T16:56:30.203Z,2.50
2019-03-28T17:01:31.311Z,2.93
2019-03-28T17:06:32.535Z,2.23
2019-03-28T17:11:34.506Z,2.83
2019-03-28T17:16:35.611Z,3.00
2019-03-28T17:21:38.136Z,2.53
2019-03-28T17:26:39.355Z,2.27
2019-03-28T17:31:40.466Z,2.80
2019-03-28T17:36:41.559Z,2.90
2019-03-28T17:41:42.684Z,2.80
2019-03-28T17:46:44.724Z,3.10
2019-03-28T17:51:46.254Z,6.43
2019-03-28T17:56:47.793Z,4.70
2019-03-28T18:01:49.187Z,5.67
2019-03-28T18:06:50.393Z,4.67
2019-03-28T18:11:51.688Z,4.70
2019-03-28T18:16:52.810Z,3.50
2019-03-28T18:22:03.202Z,3.70
2019-03-28T18:26:57.041Z,3.20
2019-03-28T18:31:58.360Z,8.13
2019-03-28T18:36:59.535Z,10.97
2019-03-28T18:42:00.664Z,16.83
2019-03-28T18:47:01.934Z,13.87
2019-03-28T18:52:05.925Z,6.63
2019-03-28T18:57:06.810Z,4.87
2019-03-28T19:02:07.922Z,5.03
2019-03-28T19:07:09.823Z,5.50
2019-03-28T19:12:11.156Z,6.00
2019-03-28T19:17:12.396Z,6.40
2019-03-28T19:22:13.619Z,3.87
2019-03-28T19:27:14.750Z,3.47
2019-03-28T19:32:15.852Z,3.70
2019-03-28T19:37:17.609Z,4.93
2019-03-28T19:42:18.852Z,3.77
2019-03-28T19:47:20.088Z,3.03
2019-03-28T19:52:21.190Z,3.10
2019-03-28T19:57:22.827Z,3.10
2019-03-28T20:02:24.513Z,3.07
2019-03-28T20:07:25.652Z,2.70
2019-03-28T20:12:26.748Z,3.30
2019-03-28T20:17:27.903Z,3.37
2019-03-28T20:22:29.026Z,3.43
2019-03-28T20:27:30.133Z,3.87
2019-03-28T20:32:31.245Z,3.60
2019-03-28T20:37:32.378Z,3.30
2019-03-28T20:42:34.256Z,3.80
2019-03-28T20:47:36.185Z,3.77
2019-03-28T20:52:37.279Z,4.13
2019-03-28T20:57:40.467Z,3.80
2019-03-28T21:02:41.521Z,4.60
2019-03-28T21:07:42.652Z,4.57
2019-03-28T21:12:43.835Z,4.30
2019-03-28T21:17:45.155Z,4.90
2019-03-28T21:22:46.769Z,5.50
2019-03-28T21:27:48.109Z,5.17
2019-03-28T21:32:55.204Z,5.27
2019-03-28T21:37:52.346Z,6.00
2019-03-28T21:42:53.491Z,6.40
2019-03-28T21:47:54.594Z,6.63
2019-03-28T21:52:55.683Z,7.00
2019-03-28T21:57:56.823Z,7.87
2019-03-28T22:02:57.927Z,6.83
2019-03-28T22:07:59.052Z,7.30
2019-03-28T22:13:00.165Z,7.57
2019-03-28T22:18:01.293Z,7.50
2019-03-28T22:23:02.494Z,7.43
2019-03-28T22:28:03.804Z,7.23
2019-03-28T22:33:04.929Z,7.37
2019-03-28T22:38:06.130Z,8.00
2019-03-28T22:43:07.369Z,7.10
2019-03-28T22:48:11.173Z,6.87
2019-03-28T22:53:11.651Z,7.20
2019-03-28T22:58:12.907Z,7.17
2019-03-28T23:03:14.900Z,7.80
2019-03-28T23:08:16.195Z,8.53
2019-03-28T23:13:17.304Z,7.80
2019-03-28T23:18:18.411Z,7.70
2019-03-28T23:23:19.508Z,6.50
2019-03-28T23:28:20.611Z,5.73
2019-03-28T23:33:21.700Z,5.80
2019-03-28T23:38:22.898Z,5.77
2019-03-28T23:43:24.045Z,5.33
2019-03-28T23:48:25.226Z,5.67
2019-03-28T23:53:26.330Z,5.43
2019-03-28T23:58:27.474Z,5.97
